createdAt,value
2022-10-24T00:00:27.061Z,3.03
2022-10-24T00:02:53.915Z,3.00
2022-10-24T00:05:20.912Z,2.50
2022-10-24T00:07:50.071Z,2.45
2022-10-24T00:10:17.762Z,3.17
2022-10-24T00:12:44.835Z,3.40
2022-10-24T00:15:12.347Z,2.55
2022-10-24T00:17:39.022Z,3.35
2022-10-24T00:20:07.227Z,2.92
2022-10-24T00:22:34.343Z,2.85
2022-10-24T00:25:00.972Z,2.50
2022-10-24T00:27:27.620Z,3.17
2022-10-24T00:29:54.416Z,3.22
2022-10-24T00:32:21.059Z,3.80
2022-10-24T00:34:47.708Z,3.15
2022-10-24T00:37:14.386Z,2.72
2022-10-24T00:39:41.036Z,3.00
2022-10-24T00:42:07.639Z,3.03
2022-10-24T00:44:38.729Z,2.90
2022-10-24T00:47:27.021Z,3.27
2022-10-24T00:50:02.878Z,2.78
2022-10-24T00:52:33.856Z,3.95
2022-10-24T00:55:02.980Z,3.35
2022-10-24T00:57:39.913Z,3.17
2022-10-24T01:00:11.658Z,2.63
2022-10-24T01:02:38.838Z,3.38
2022-10-24T01:05:08.385Z,2.50
2022-10-24T01:08:13.147Z,2.17
2022-10-24T01:10:47.967Z,2.90
2022-10-24T01:13:52.097Z,2.95
2022-10-24T01:16:34.914Z,2.90
2022-10-24T01:19:19.409Z,3.10
2022-10-24T01:21:53.764Z,2.38
2022-10-24T01:24:30.165Z,3.55
2022-10-24T01:27:11.585Z,2.88
2022-10-24T01:29:49.917Z,2.60
2022-10-24T01:32:31.488Z,2.45
2022-10-24T01:35:22.001Z,2.75
2022-10-24T01:38:03.775Z,3.10
2022-10-24T01:40:37.854Z,2.45
2022-10-24T01:43:10.882Z,2.60
2022-10-24T01:45:41.901Z,3.60
2022-10-24T01:48:13.504Z,2.80
2022-10-24T01:50:42.263Z,2.33
2022-10-24T01:53:11.855Z,3.53
2022-10-24T01:55:40.530Z,2.60
2022-10-24T01:58:08.530Z,3.22
2022-10-24T02:00:35.973Z,3.00
2022-10-24T02:03:11.791Z,3.25
2022-10-24T02:05:45.083Z,3.30
2022-10-24T02:08:16.972Z,3.30
2022-10-24T02:13:25.859Z,2.97
2022-10-24T02:15:55.484Z,3.28
2022-10-24T02:18:22.447Z,2.47
2022-10-24T02:20:59.633Z,2.22
2022-10-24T02:23:52.627Z,2.67
2022-10-24T02:26:31.339Z,3.08
2022-10-24T02:29:03.410Z,2.60
2022-10-24T02:31:36.024Z,2.50
2022-10-24T02:34:06.060Z,3.03
2022-10-24T02:36:34.502Z,3.05
2022-10-24T02:39:03.838Z,2.72
2022-10-24T02:41:34.351Z,2.90
2022-10-24T02:44:03.415Z,2.92
2022-10-24T02:46:32.190Z,3.63
2022-10-24T02:49:03.845Z,3.17
2022-10-24T02:51:37.811Z,2.60
2022-10-24T02:54:05.168Z,2.90
2022-10-24T02:56:32.193Z,3.55
2022-10-24T02:58:59.046Z,3.30
2022-10-24T03:01:25.763Z,3.05
2022-10-24T03:03:52.481Z,3.38
2022-10-24T03:06:19.088Z,3.00
2022-10-24T03:08:45.837Z,3.28
2022-10-24T03:11:12.493Z,2.60
2022-10-24T03:13:39.125Z,3.95
2022-10-24T03:16:07.827Z,3.33
2022-10-24T03:18:36.996Z,3.47
2022-10-24T03:21:03.735Z,3.55
2022-10-24T03:23:30.671Z,3.17
2022-10-24T03:25:58.989Z,3.88
2022-10-24T03:28:26.108Z,3.40
2022-10-24T03:30:53.379Z,3.50
2022-10-24T03:33:20.206Z,3.25
2022-10-24T03:35:46.831Z,3.28
2022-10-24T03:38:13.555Z,3.88
2022-10-24T03:40:40.325Z,3.85
2022-10-24T03:43:06.949Z,3.63
2022-10-24T03:45:33.587Z,3.30
2022-10-24T03:48:00.187Z,3.28
2022-10-24T03:50:26.992Z,3.28
2022-10-24T03:52:53.579Z,3.95
2022-10-24T03:55:20.871Z,3.50
2022-10-24T03:57:47.915Z,3.80
2022-10-24T04:00:15.267Z,3.85
2022-10-24T04:02:43.882Z,3.67
2022-10-24T04:05:10.964Z,3.90
2022-10-24T04:07:37.702Z,3.97
2022-10-24T04:10:05.977Z,3.38
2022-10-24T04:12:33.296Z,3.35
2022-10-24T04:15:02.530Z,3.63
2022-10-24T04:17:32.603Z,3.85
2022-10-24T04:19:59.427Z,3.85
2022-10-24T04:22:26.116Z,3.88
2022-10-24T04:24:52.713Z,3.58
2022-10-24T04:27:19.494Z,3.08
2022-10-24T04:29:46.222Z,3.97
2022-10-24T04:32:12.813Z,3.65
2022-10-24T04:34:39.591Z,3.08
2022-10-24T04:37:06.291Z,3.20
2022-10-24T04:39:33.086Z,3.55
2022-10-24T04:41:59.746Z,3.42
2022-10-24T04:44:26.410Z,3.17
2022-10-24T04:46:53.094Z,3.25
2022-10-24T04:49:20.056Z,2.70
2022-10-24T04:51:46.699Z,3.08
2022-10-24T04:54:13.328Z,4.03
2022-10-24T04:56:39.939Z,3.35
2022-10-24T04:59:06.658Z,3.15
2022-10-24T05:01:33.416Z,2.90
2022-10-24T05:06:31.722Z,2.83
2022-10-24T05:08:58.354Z,3.42
2022-10-24T05:11:24.987Z,2.60
2022-10-24T05:13:51.786Z,2.72
2022-10-24T05:16:18.499Z,3.58
2022-10-24T05:18:45.117Z,2.78
2022-10-24T05:21:11.896Z,2.53
2022-10-24T05:23:38.495Z,2.25
2022-10-24T05:26:05.189Z,2.80
2022-10-24T05:28:31.892Z,2.33
2022-10-24T05:30:58.649Z,2.95
2022-10-24T05:33:25.429Z,2.25
2022-10-24T05:35:53.272Z,2.67
2022-10-24T05:38:19.913Z,2.55
2022-10-24T05:40:51.391Z,2.75
2022-10-24T05:43:18.448Z,2.63
2022-10-24T05:45:47.664Z,2.50
2022-10-24T05:48:14.513Z,3.70
2022-10-24T05:50:41.777Z,2.95
2022-10-24T05:53:08.882Z,2.78
2022-10-24T05:55:36.651Z,3.45
2022-10-24T05:58:03.896Z,3.42
2022-10-24T06:00:33.773Z,2.90
2022-10-24T06:03:02.996Z,3.53
2022-10-24T06:05:30.059Z,2.55
2022-10-24T06:07:58.450Z,3.03
2022-10-24T06:10:25.162Z,3.22
2022-10-24T06:12:51.796Z,3.08
2022-10-24T06:15:18.559Z,3.10
2022-10-24T06:17:45.215Z,3.28
2022-10-24T06:20:11.913Z,2.97
2022-10-24T06:22:39.119Z,3.20
2022-10-24T06:25:06.193Z,2.65
2022-10-24T06:27:32.956Z,3.15
2022-10-24T06:29:59.582Z,3.33
2022-10-24T06:32:28.483Z,2.85
2022-10-24T06:34:55.139Z,2.50
2022-10-24T06:37:21.926Z,2.50
2022-10-24T06:39:48.640Z,2.60
2022-10-24T06:42:15.343Z,2.60
2022-10-24T06:44:41.978Z,3.15
2022-10-24T06:47:08.991Z,2.72
2022-10-24T06:49:35.906Z,4.15
2022-10-24T06:52:02.523Z,2.42
2022-10-24T06:54:30.469Z,3.15
2022-10-24T06:56:57.672Z,3.13
2022-10-24T06:59:24.416Z,2.88
2022-10-24T07:01:51.228Z,2.88
2022-10-24T07:04:18.092Z,3.33
2022-10-24T07:06:45.039Z,2.38
2022-10-24T07:09:15.130Z,2.95
2022-10-24T07:11:43.199Z,3.28
2022-10-24T07:14:09.989Z,2.83
2022-10-24T07:16:37.020Z,2.80
2022-10-24T07:19:05.644Z,4.05
2022-10-24T07:21:33.657Z,3.50
2022-10-24T07:24:00.766Z,3.65
2022-10-24T07:26:28.860Z,3.17
2022-10-24T07:29:00.454Z,3.15
2022-10-24T07:31:30.517Z,2.33
2022-10-24T07:33:57.204Z,3.08
2022-10-24T07:36:25.668Z,3.28
2022-10-24T07:38:55.205Z,2.80
2022-10-24T07:41:22.117Z,2.83
2022-10-24T07:43:48.797Z,4.00
2022-10-24T07:46:17.879Z,2.88
2022-10-24T07:48:48.318Z,2.85
2022-10-24T07:51:15.117Z,2.53
2022-10-24T07:53:42.178Z,2.90
2022-10-24T07:56:13.165Z,2.92
2022-10-24T07:58:40.012Z,2.40
2022-10-24T08:01:09.609Z,2.75
2022-10-24T08:03:36.746Z,2.90
2022-10-24T08:06:08.668Z,3.28
2022-10-24T08:11:12.518Z,2.75
2022-10-24T08:13:39.650Z,2.70
2022-10-24T08:16:11.813Z,3.13
2022-10-24T08:18:39.987Z,2.70
2022-10-24T08:21:09.308Z,2.67
2022-10-24T08:23:37.977Z,2.58
2022-10-24T08:26:06.324Z,3.10
2022-10-24T08:28:33.315Z,3.25
2022-10-24T08:31:02.449Z,3.10
2022-10-24T08:33:29.897Z,2.83
2022-10-24T08:36:04.106Z,2.40
2022-10-24T08:38:30.878Z,2.67
2022-10-24T08:40:58.297Z,2.65
2022-10-24T08:43:26.482Z,2.80
2022-10-24T08:45:55.918Z,2.50
2022-10-24T08:48:28.497Z,2.78
2022-10-24T08:51:10.882Z,2.80
2022-10-24T08:53:38.965Z,2.83
2022-10-24T08:56:08.893Z,2.83
2022-10-24T08:58:37.856Z,2.67
2022-10-24T09:01:48.616Z,2.67
2022-10-24T09:04:19.739Z,2.53
2022-10-24T09:06:47.780Z,2.10
2022-10-24T09:09:26.628Z,3.13
2022-10-24T09:12:03.454Z,2.65
2022-10-24T09:14:36.304Z,2.20
2022-10-24T09:20:00.679Z,2.35
2022-10-24T09:22:31.965Z,3.30
2022-10-24T09:25:05.001Z,2.50
2022-10-24T09:27:37.049Z,2.22
2022-10-24T09:30:06.441Z,2.60
2022-10-24T09:32:35.226Z,1.75
2022-10-24T09:35:21.863Z,2.42
2022-10-24T09:37:52.135Z,1.80
2022-10-24T09:40:32.423Z,2.03
2022-10-24T09:43:07.036Z,1.77
2022-10-24T09:45:46.176Z,2.63
2022-10-24T09:48:53.898Z,1.95
2022-10-24T09:51:27.299Z,1.70
2022-10-24T09:54:00.847Z,1.95
2022-10-24T09:56:40.572Z,1.75
2022-10-24T09:59:29.591Z,1.58
2022-10-24T10:02:19.555Z,2.03
2022-10-24T10:05:02.782Z,2.05
2022-10-24T10:07:42.525Z,1.50
2022-10-24T10:10:18.559Z,1.83
2022-10-24T10:12:54.695Z,1.73
2022-10-24T10:15:36.419Z,1.48
2022-10-24T10:18:25.426Z,1.75
2022-10-24T10:21:19.993Z,1.60
2022-10-24T10:23:55.535Z,1.55
2022-10-24T10:26:30.872Z,1.80
2022-10-24T10:28:59.217Z,1.30
2022-10-24T10:31:46.633Z,1.83
2022-10-24T10:34:32.254Z,1.73
2022-10-24T10:37:26.064Z,1.80
2022-10-24T10:39:55.697Z,1.67
2022-10-24T10:42:27.535Z,1.80
2022-10-24T10:45:00.112Z,1.70
2022-10-24T10:47:55.027Z,1.48
2022-10-24T10:50:38.690Z,1.42
2022-10-24T10:53:44.039Z,1.90
2022-10-24T10:56:24.988Z,1.48
2022-10-24T10:59:07.888Z,1.70
2022-10-24T11:02:03.428Z,1.40
2022-10-24T11:04:35.935Z,1.65
2022-10-24T11:07:16.181Z,1.17
2022-10-24T11:09:49.736Z,1.60
2022-10-24T11:12:24.133Z,1.48
2022-10-24T11:14:58.042Z,1.63
2022-10-24T11:17:31.630Z,2.00
2022-10-24T11:20:04.278Z,1.73
2022-10-24T11:22:41.451Z,1.77
2022-10-24T11:25:39.920Z,2.13
2022-10-24T11:28:17.153Z,1.67
2022-10-24T11:31:00.223Z,1.70
2022-10-24T11:33:35.706Z,1.52
2022-10-24T11:36:11.258Z,1.67
2022-10-24T11:38:46.269Z,1.52
2022-10-24T11:41:37.878Z,1.48
2022-10-24T11:44:16.670Z,1.65
2022-10-24T11:46:50.074Z,1.85
2022-10-24T11:49:25.267Z,1.35
2022-10-24T11:51:58.110Z,1.55
2022-10-24T11:55:00.729Z,1.63
2022-10-24T11:57:29.665Z,1.50
2022-10-24T11:59:57.992Z,1.60
2022-10-24T12:03:02.820Z,2.03
2022-10-24T12:05:46.973Z,1.65
2022-10-24T12:08:32.459Z,1.70
2022-10-24T12:11:07.858Z,1.88
2022-10-24T12:14:09.923Z,1.73
2022-10-24T12:19:16.528Z,1.48
2022-10-24T12:22:06.090Z,2.20
2022-10-24T12:24:36.254Z,1.75
2022-10-24T12:27:30.465Z,1.48
2022-10-24T12:30:16.803Z,1.40
2022-10-24T12:32:46.960Z,1.80
2022-10-24T12:35:33.770Z,1.55
2022-10-24T12:38:02.992Z,1.40
2022-10-24T12:40:55.333Z,1.58
2022-10-24T12:43:32.880Z,1.48
2022-10-24T12:46:23.432Z,1.58
2022-10-24T12:48:59.366Z,1.75
2022-10-24T12:51:32.132Z,1.83
2022-10-24T12:54:16.769Z,1.70
2022-10-24T12:56:49.417Z,1.65
2022-10-24T12:59:28.662Z,1.77
2022-10-24T13:02:33.180Z,1.70
2022-10-24T13:05:32.010Z,1.42
2022-10-24T13:08:27.116Z,1.50
2022-10-24T13:11:24.861Z,1.40
2022-10-24T13:14:10.139Z,1.70
2022-10-24T13:16:44.229Z,1.48
2022-10-24T13:19:19.516Z,2.00
2022-10-24T13:21:57.664Z,1.30
2022-10-24T13:24:38.018Z,1.40
2022-10-24T13:27:12.637Z,1.60
2022-10-24T13:29:39.584Z,1.50
2022-10-24T13:32:06.298Z,1.55
2022-10-24T13:34:49.860Z,1.42
2022-10-24T13:37:42.152Z,2.28
2022-10-24T13:40:26.943Z,1.83
2022-10-24T13:43:19.368Z,1.48
2022-10-24T13:45:52.208Z,1.45
2022-10-24T13:48:21.444Z,1.40
2022-10-24T13:51:10.496Z,1.38
2022-10-24T13:54:14.126Z,2.05
2022-10-24T13:56:45.460Z,2.08
2022-10-24T13:59:30.956Z,1.40
2022-10-24T14:01:59.856Z,1.30
2022-10-24T14:04:27.936Z,1.38
2022-10-24T14:07:03.757Z,1.60
2022-10-24T14:09:38.180Z,1.42
2022-10-24T14:12:05.204Z,1.63
2022-10-24T14:14:42.743Z,1.77
2022-10-24T14:17:29.172Z,1.48
2022-10-24T14:20:09.664Z,1.70
2022-10-24T14:22:39.847Z,1.52
2022-10-24T14:25:36.460Z,1.13
2022-10-24T14:28:17.710Z,1.67
2022-10-24T14:31:00.010Z,1.80
2022-10-24T14:33:29.294Z,1.55
2022-10-24T14:35:59.096Z,2.33
2022-10-24T14:38:27.845Z,1.65
2022-10-24T14:41:08.010Z,1.48
2022-10-24T14:43:37.138Z,1.98
2022-10-24T14:46:12.948Z,1.40
2022-10-24T14:48:49.467Z,1.85
2022-10-24T14:51:26.886Z,1.50
2022-10-24T14:53:53.844Z,2.20
2022-10-24T14:56:33.461Z,1.90
2022-10-24T14:59:06.100Z,1.95
2022-10-24T15:01:32.860Z,1.85
2022-10-24T15:04:05.544Z,2.28
2022-10-24T15:06:41.097Z,1.98
2022-10-24T15:09:10.402Z,1.92
2022-10-24T15:11:45.706Z,2.63
2022-10-24T15:14:33.201Z,1.50
2022-10-24T15:17:26.952Z,1.40
2022-10-24T15:20:02.370Z,1.52
2022-10-24T15:22:32.973Z,2.03
2022-10-24T15:25:03.483Z,1.90
2022-10-24T15:27:54.091Z,2.00
2022-10-24T15:30:22.255Z,2.30
2022-10-24T15:32:50.757Z,2.10
2022-10-24T15:35:18.360Z,1.92
2022-10-24T15:37:57.146Z,1.90
2022-10-24T15:40:30.499Z,1.90
2022-10-24T15:42:57.169Z,1.95
2022-10-24T15:45:24.411Z,2.20
2022-10-24T15:47:52.821Z,2.08
2022-10-24T15:52:56.212Z,1.83
2022-10-24T15:55:25.849Z,1.60
2022-10-24T15:57:52.866Z,1.80
2022-10-24T16:00:23.099Z,1.77
2022-10-24T16:02:55.167Z,2.38
2022-10-24T16:05:28.145Z,2.13
2022-10-24T16:07:55.063Z,1.75
2022-10-24T16:10:23.222Z,3.10
2022-10-24T16:12:50.643Z,2.10
2022-10-24T16:17:59.424Z,1.58
2022-10-24T16:20:26.171Z,1.83
2022-10-24T16:22:53.213Z,2.25
2022-10-24T16:25:22.751Z,1.65
2022-10-24T16:27:50.748Z,2.13
2022-10-24T16:30:20.396Z,1.95
2022-10-24T16:32:47.860Z,3.17
2022-10-24T16:35:35.668Z,2.38
2022-10-24T16:38:03.364Z,1.95
2022-10-24T16:40:30.533Z,1.98
2022-10-24T16:42:59.395Z,2.25
2022-10-24T16:45:26.472Z,2.20
2022-10-24T16:47:53.140Z,2.33
2022-10-24T16:50:26.114Z,1.88
2022-10-24T16:53:15.729Z,1.95
2022-10-24T16:55:48.442Z,1.80
2022-10-24T16:58:15.308Z,2.08
2022-10-24T17:00:42.183Z,2.25
2022-10-24T17:03:08.983Z,2.63
2022-10-24T17:05:35.738Z,2.45
2022-10-24T17:08:02.923Z,2.00
2022-10-24T17:10:30.003Z,2.13
2022-10-24T17:12:56.637Z,1.80
2022-10-24T17:15:23.564Z,2.35
2022-10-24T17:17:50.724Z,2.10
2022-10-24T17:20:17.739Z,1.80
2022-10-24T17:22:46.249Z,2.45
2022-10-24T17:25:19.347Z,2.47
2022-10-24T17:27:46.513Z,2.60
2022-10-24T17:30:17.523Z,2.20
2022-10-24T17:32:44.562Z,2.35
2022-10-24T17:35:13.959Z,2.42
2022-10-24T17:38:06.786Z,2.03
2022-10-24T17:40:48.696Z,2.05
2022-10-24T17:43:25.468Z,2.08
2022-10-24T17:45:53.996Z,1.88
2022-10-24T17:48:20.819Z,2.58
2022-10-24T17:50:48.087Z,1.98
2022-10-24T17:53:17.250Z,2.28
2022-10-24T17:55:46.722Z,2.53
2022-10-24T17:58:14.279Z,2.88
2022-10-24T18:00:41.203Z,2.90
2022-10-24T18:03:08.569Z,2.10
2022-10-24T18:05:37.935Z,3.28
2022-10-24T18:08:06.931Z,2.40
2022-10-24T18:10:34.279Z,2.28
2022-10-24T18:13:01.749Z,1.95
2022-10-24T18:15:31.745Z,2.33
2022-10-24T18:17:58.361Z,2.50
2022-10-24T18:20:25.026Z,2.63
2022-10-24T18:22:51.979Z,3.30
2022-10-24T18:25:21.972Z,2.08
2022-10-24T18:27:50.507Z,2.05
2022-10-24T18:30:17.765Z,2.05
2022-10-24T18:32:44.978Z,2.20
2022-10-24T18:35:12.411Z,1.98
2022-10-24T18:37:39.226Z,2.55
2022-10-24T18:40:07.853Z,2.38
2022-10-24T18:42:48.114Z,2.20
2022-10-24T18:45:21.074Z,3.05
2022-10-24T18:47:48.801Z,2.58
2022-10-24T18:50:18.667Z,2.47
2022-10-24T18:53:21.409Z,2.08
2022-10-24T18:55:49.244Z,1.90
2022-10-24T18:58:19.037Z,1.98
2022-10-24T19:00:46.942Z,1.92
2022-10-24T19:03:22.817Z,2.53
2022-10-24T19:06:17.076Z,2.30
2022-10-24T19:08:43.841Z,2.30
2022-10-24T19:11:14.149Z,4.00
2022-10-24T19:13:41.964Z,3.42
2022-10-24T19:16:15.204Z,3.30
2022-10-24T19:18:48.630Z,2.42
2022-10-24T19:21:15.467Z,2.10
2022-10-24T19:23:42.218Z,2.20
2022-10-24T19:26:11.244Z,2.17
2022-10-24T19:28:37.947Z,1.98
2022-10-24T19:31:06.350Z,2.38
2022-10-24T19:33:32.958Z,2.30
2022-10-24T19:36:04.009Z,1.90
2022-10-24T19:38:31.255Z,2.47
2022-10-24T19:40:58.669Z,2.25
2022-10-24T19:43:30.887Z,2.78
2022-10-24T19:48:49.773Z,2.10
2022-10-24T19:51:18.093Z,2.10
2022-10-24T19:53:46.281Z,3.88
2022-10-24T19:56:20.039Z,1.75
2022-10-24T19:58:49.390Z,2.15
2022-10-24T20:01:25.028Z,1.90
2022-10-24T20:03:52.691Z,2.00
2022-10-24T20:06:19.546Z,2.60
2022-10-24T20:08:47.696Z,2.13
2022-10-24T20:11:15.605Z,2.50
2022-10-24T20:13:43.547Z,2.15
2022-10-24T20:16:10.531Z,1.90
2022-10-24T20:18:38.168Z,2.13
2022-10-24T20:21:11.584Z,1.60
2022-10-24T20:23:40.540Z,2.58
2022-10-24T20:26:19.858Z,3.80
2022-10-24T20:28:49.930Z,4.00
2022-10-24T20:31:25.582Z,2.50
2022-10-24T20:33:52.398Z,2.40
2022-10-24T20:36:21.153Z,2.35
2022-10-24T20:38:47.906Z,2.63
2022-10-24T20:41:14.578Z,2.15
2022-10-24T20:43:41.245Z,2.42
2022-10-24T20:46:07.872Z,1.73
2022-10-24T20:48:35.139Z,2.22
2022-10-24T20:51:10.672Z,2.63
2022-10-24T20:53:37.912Z,1.80
2022-10-24T20:56:06.338Z,2.53
2022-10-24T20:58:35.701Z,2.53
2022-10-24T21:01:07.811Z,3.03
2022-10-24T21:03:35.489Z,2.10
2022-10-24T21:06:02.986Z,2.80
2022-10-24T21:08:30.121Z,2.08
2022-10-24T21:10:56.895Z,2.30
2022-10-24T21:13:23.514Z,2.65
2022-10-24T21:15:56.437Z,2.83
2022-10-24T21:18:23.096Z,2.60
2022-10-24T21:20:49.769Z,2.40
2022-10-24T21:23:16.396Z,3.05
2022-10-24T21:28:14.750Z,2.00
2022-10-24T21:30:41.412Z,2.40
2022-10-24T21:33:10.608Z,2.70
2022-10-24T21:35:40.328Z,2.53
2022-10-24T21:38:06.957Z,2.17
2022-10-24T21:40:33.546Z,2.67
2022-10-24T21:43:03.412Z,2.60
2022-10-24T21:45:30.978Z,2.20
2022-10-24T21:47:57.607Z,2.50
2022-10-24T21:50:24.309Z,2.25
2022-10-24T21:52:50.986Z,2.33
2022-10-24T21:55:17.638Z,1.90
2022-10-24T21:57:44.240Z,2.17
2022-10-24T22:00:11.603Z,2.75
2022-10-24T22:02:38.296Z,2.78
2022-10-24T22:05:05.476Z,2.75
2022-10-24T22:07:32.128Z,2.08
2022-10-24T22:09:58.787Z,2.10
2022-10-24T22:12:25.585Z,2.67
2022-10-24T22:14:52.176Z,2.03
2022-10-24T22:17:18.806Z,1.70
2022-10-24T22:19:45.488Z,2.08
2022-10-24T22:22:12.110Z,2.20
2022-10-24T22:24:38.724Z,2.10
2022-10-24T22:27:05.365Z,1.98
2022-10-24T22:29:31.996Z,2.00
2022-10-24T22:31:58.942Z,2.38
2022-10-24T22:34:26.147Z,2.13
2022-10-24T22:37:22.262Z,2.67
2022-10-24T22:39:49.283Z,2.60
2022-10-24T22:42:19.324Z,2.88
2022-10-24T22:44:47.725Z,2.45
2022-10-24T22:47:34.310Z,1.88
2022-10-24T22:50:04.347Z,2.42
2022-10-24T22:52:31.225Z,1.90
2022-10-24T22:54:58.211Z,2.00
2022-10-24T22:57:25.282Z,2.38
2022-10-24T22:59:52.223Z,2.70
2022-10-24T23:02:40.825Z,2.50
2022-10-24T23:05:19.316Z,2.25
2022-10-24T23:07:56.946Z,2.30
2022-10-24T23:10:25.320Z,2.20
2022-10-24T23:12:52.580Z,2.00
2022-10-24T23:15:20.991Z,2.60
2022-10-24T23:17:49.103Z,2.13
2022-10-24T23:20:39.775Z,2.00
2022-10-24T23:23:24.310Z,2.08
2022-10-24T23:26:03.730Z,2.47
2022-10-24T23:28:52.089Z,1.77
2022-10-24T23:31:18.983Z,1.92
2022-10-24T23:33:46.015Z,1.77
2022-10-24T23:36:20.272Z,1.85
2022-10-24T23:38:47.390Z,2.30
2022-10-24T23:41:14.404Z,2.10
2022-10-24T23:43:41.237Z,1.60
2022-10-24T23:46:29.985Z,1.63
2022-10-24T23:49:20.644Z,1.88
2022-10-24T23:52:03.327Z,1.52
2022-10-24T23:54:32.853Z,1.75
2022-10-24T23:57:00.419Z,1.70
2022-10-24T23:59:30.599Z,1.50
